sensor_id;sensor_type;location;lat;lon;timestamp;pressure;altitude;pressure_sealevel;temperature;humidity
79368;BME280;68834;53.152;17.962;2023-05-18T00:00:13;102076.27;;;5.31;62.89
79368;BME280;68834;53.152;17.962;2023-05-18T00:03:01;102083.36;;;5.30;62.89
79368;BME280;68834;53.152;17.962;2023-05-18T00:05:28;102091.52;;;5.31;63.04
79368;BME280;68834;53.152;17.962;2023-05-18T00:07:59;102095.35;;;5.31;63.23
79368;BME280;68834;53.152;17.962;2023-05-18T00:10:27;102093.27;;;5.31;63.33
79368;BME280;68834;53.152;17.962;2023-05-18T00:12:54;102097.72;;;5.28;63.29
79368;BME280;68834;53.152;17.962;2023-05-18T00:15:21;102099.53;;;5.24;63.57
79368;BME280;68834;53.152;17.962;2023-05-18T00:17:47;102104.84;;;5.19;63.68
79368;BME280;68834;53.152;17.962;2023-05-18T00:20:15;102106.45;;;5.13;64.01
79368;BME280;68834;53.152;17.962;2023-05-18T00:22:43;102112.80;;;5.09;64.00
79368;BME280;68834;53.152;17.962;2023-05-18T00:25:10;102110.40;;;5.02;64.32
79368;BME280;68834;53.152;17.962;2023-05-18T00:27:37;102112.48;;;4.93;64.51
79368;BME280;68834;53.152;17.962;2023-05-18T00:30:04;102115.41;;;4.85;64.61
79368;BME280;68834;53.152;17.962;2023-05-18T00:32:31;102113.80;;;4.82;64.65
79368;BME280;68834;53.152;17.962;2023-05-18T00:34:58;102114.17;;;4.83;64.81
79368;BME280;68834;53.152;17.962;2023-05-18T00:37:24;102112.13;;;4.85;64.97
79368;BME280;68834;53.152;17.962;2023-05-18T00:39:51;102114.09;;;4.87;65.04
79368;BME280;68834;53.152;17.962;2023-05-18T00:42:17;102117.73;;;4.88;64.96
79368;BME280;68834;53.152;17.962;2023-05-18T00:44:44;102118.90;;;4.86;65.05
79368;BME280;68834;53.152;17.962;2023-05-18T00:47:11;102114.55;;;4.85;65.34
79368;BME280;68834;53.152;17.962;2023-05-18T00:49:38;102110.01;;;4.83;65.40
79368;BME280;68834;53.152;17.962;2023-05-18T00:52:04;102102.54;;;4.82;65.52
79368;BME280;68834;53.152;17.962;2023-05-18T00:54:31;102105.08;;;4.80;65.68
79368;BME280;68834;53.152;17.962;2023-05-18T00:57:00;102109.73;;;4.78;65.74
79368;BME280;68834;53.152;17.962;2023-05-18T00:59:28;102109.85;;;4.76;65.90
79368;BME280;68834;53.152;17.962;2023-05-18T01:01:56;102109.63;;;4.73;65.98
79368;BME280;68834;53.152;17.962;2023-05-18T01:04:25;102110.45;;;4.71;65.92
79368;BME280;68834;53.152;17.962;2023-05-18T01:06:54;102108.98;;;4.67;65.91
79368;BME280;68834;53.152;17.962;2023-05-18T01:09:22;102114.52;;;4.67;66.05
79368;BME280;68834;53.152;17.962;2023-05-18T01:11:55;102118.05;;;4.69;66.02
79368;BME280;68834;53.152;17.962;2023-05-18T01:17:19;102114.45;;;4.72;66.04
79368;BME280;68834;53.152;17.962;2023-05-18T01:20:11;102118.77;;;4.71;66.31
79368;BME280;68834;53.152;17.962;2023-05-18T01:23:24;102123.31;;;4.65;66.53
79368;BME280;68834;53.152;17.962;2023-05-18T01:28:24;102132.58;;;4.53;66.57
79368;BME280;68834;53.152;17.962;2023-05-18T01:30:53;102133.00;;;4.49;66.75
79368;BME280;68834;53.152;17.962;2023-05-18T01:33:20;102133.20;;;4.43;66.82
79368;BME280;68834;53.152;17.962;2023-05-18T01:35:47;102133.44;;;4.38;66.92
79368;BME280;68834;53.152;17.962;2023-05-18T01:38:20;102129.33;;;4.32;67.07
79368;BME280;68834;53.152;17.962;2023-05-18T01:52:07;102141.73;;;4.22;67.52
79368;BME280;68834;53.152;17.962;2023-05-18T01:54:36;102141.22;;;4.22;67.42
79368;BME280;68834;53.152;17.962;2023-05-18T01:57:05;102143.08;;;4.20;67.56
79368;BME280;68834;53.152;17.962;2023-05-18T01:59:36;102145.40;;;4.16;67.56
79368;BME280;68834;53.152;17.962;2023-05-18T02:02:03;102142.17;;;4.12;67.75
79368;BME280;68834;53.152;17.962;2023-05-18T02:04:31;102145.20;;;4.08;67.85
79368;BME280;68834;53.152;17.962;2023-05-18T02:06:58;102148.56;;;4.04;68.01
79368;BME280;68834;53.152;17.962;2023-05-18T02:09:24;102149.67;;;4.00;68.21
79368;BME280;68834;53.152;17.962;2023-05-18T02:11:51;102148.41;;;3.98;68.11
79368;BME280;68834;53.152;17.962;2023-05-18T02:14:18;102151.02;;;3.98;68.28
79368;BME280;68834;53.152;17.962;2023-05-18T02:16:44;102150.55;;;4.00;68.25
79368;BME280;68834;53.152;17.962;2023-05-18T02:19:13;102151.27;;;4.01;68.26
79368;BME280;68834;53.152;17.962;2023-05-18T02:21:42;102149.38;;;4.02;68.36
79368;BME280;68834;53.152;17.962;2023-05-18T02:24:09;102150.91;;;4.00;68.42
79368;BME280;68834;53.152;17.962;2023-05-18T02:26:37;102149.48;;;3.99;68.50
79368;BME280;68834;53.152;17.962;2023-05-18T02:29:04;102152.90;;;3.98;68.50
79368;BME280;68834;53.152;17.962;2023-05-18T02:31:31;102151.34;;;3.97;68.74
79368;BME280;68834;53.152;17.962;2023-05-18T02:34:00;102155.33;;;3.97;68.80
79368;BME280;68834;53.152;17.962;2023-05-18T02:36:28;102155.86;;;3.98;68.84
79368;BME280;68834;53.152;17.962;2023-05-18T02:39:03;102158.29;;;3.99;69.05
79368;BME280;68834;53.152;17.962;2023-05-18T02:41:30;102160.02;;;3.98;69.24
79368;BME280;68834;53.152;17.962;2023-05-18T02:43:56;102163.53;;;4.01;69.11
79368;BME280;68834;53.152;17.962;2023-05-18T02:46:23;102160.15;;;4.04;69.26
79368;BME280;68834;53.152;17.962;2023-05-18T02:48:50;102160.05;;;4.07;69.41
79368;BME280;68834;53.152;17.962;2023-05-18T02:51:17;102157.34;;;4.09;69.48
79368;BME280;68834;53.152;17.962;2023-05-18T02:53:44;102162.05;;;4.11;69.53
79368;BME280;68834;53.152;17.962;2023-05-18T02:56:12;102161.39;;;4.12;69.86
79368;BME280;68834;53.152;17.962;2023-05-18T02:58:50;102162.59;;;4.12;69.79
79368;BME280;68834;53.152;17.962;2023-05-18T03:01:28;102167.27;;;4.11;69.92
79368;BME280;68834;53.152;17.962;2023-05-18T03:03:55;102173.70;;;4.13;70.01
79368;BME280;68834;53.152;17.962;2023-05-18T03:06:25;102178.60;;;4.16;70.05
79368;BME280;68834;53.152;17.962;2023-05-18T03:08:53;102181.77;;;4.17;70.16
79368;BME280;68834;53.152;17.962;2023-05-18T03:11:24;102181.98;;;4.19;70.06
79368;BME280;68834;53.152;17.962;2023-05-18T03:13:52;102182.44;;;4.23;70.17
79368;BME280;68834;53.152;17.962;2023-05-18T03:16:18;102186.03;;;4.29;70.08
79368;BME280;68834;53.152;17.962;2023-05-18T03:18:45;102189.17;;;4.38;69.95
79368;BME280;68834;53.152;17.962;2023-05-18T03:21:12;102188.86;;;4.46;69.91
79368;BME280;68834;53.152;17.962;2023-05-18T03:23:41;102189.93;;;4.56;69.95
79368;BME280;68834;53.152;17.962;2023-05-18T03:26:08;102190.98;;;4.64;69.83
79368;BME280;68834;53.152;17.962;2023-05-18T03:28:37;102195.47;;;4.70;69.80
79368;BME280;68834;53.152;17.962;2023-05-18T03:31:04;102199.23;;;4.76;69.53
79368;BME280;68834;53.152;17.962;2023-05-18T03:33:31;102202.44;;;4.80;69.63
79368;BME280;68834;53.152;17.962;2023-05-18T03:36:03;102202.16;;;4.83;69.49
79368;BME280;68834;53.152;17.962;2023-05-18T03:38:30;102202.08;;;4.87;69.55
79368;BME280;68834;53.152;17.962;2023-05-18T03:41:02;102200.95;;;4.91;69.50
79368;BME280;68834;53.152;17.962;2023-05-18T03:43:28;102205.18;;;4.94;69.22
79368;BME280;68834;53.152;17.962;2023-05-18T03:45:58;102203.17;;;4.97;69.39
79368;BME280;68834;53.152;17.962;2023-05-18T03:48:25;102208.27;;;5.01;69.17
79368;BME280;68834;53.152;17.962;2023-05-18T03:50:52;102204.73;;;5.06;69.37
79368;BME280;68834;53.152;17.962;2023-05-18T03:53:19;102206.89;;;5.09;69.27
79368;BME280;68834;53.152;17.962;2023-05-18T03:55:47;102211.27;;;5.12;69.21
79368;BME280;68834;53.152;17.962;2023-05-18T03:58:17;102215.52;;;5.16;69.14
79368;BME280;68834;53.152;17.962;2023-05-18T04:00:48;102217.52;;;5.21;69.23
79368;BME280;68834;53.152;17.962;2023-05-18T04:03:15;102215.37;;;5.26;69.19
79368;BME280;68834;53.152;17.962;2023-05-18T04:05:42;102215.44;;;5.29;69.09
79368;BME280;68834;53.152;17.962;2023-05-18T04:08:09;102218.30;;;5.33;69.15
79368;BME280;68834;53.152;17.962;2023-05-18T04:10:43;102220.98;;;5.38;69.01
79368;BME280;68834;53.152;17.962;2023-05-18T04:13:10;102225.74;;;5.41;68.89
79368;BME280;68834;53.152;17.962;2023-05-18T04:15:37;102226.65;;;5.43;68.88
79368;BME280;68834;53.152;17.962;2023-05-18T04:18:04;102230.00;;;5.46;68.86
79368;BME280;68834;53.152;17.962;2023-05-18T04:20:30;102234.04;;;5.48;69.06
79368;BME280;68834;53.152;17.962;2023-05-18T04:22:57;102236.71;;;5.52;69.05
79368;BME280;68834;53.152;17.962;2023-05-18T04:25:24;102241.48;;;5.57;69.00
79368;BME280;68834;53.152;17.962;2023-05-18T04:27:55;102240.29;;;5.66;69.06
79368;BME280;68834;53.152;17.962;2023-05-18T04:30:25;102246.39;;;5.77;68.92
79368;BME280;68834;53.152;17.962;2023-05-18T04:32:52;102247.44;;;5.86;69.01
79368;BME280;68834;53.152;17.962;2023-05-18T04:35:20;102255.46;;;5.96;68.91
79368;BME280;68834;53.152;17.962;2023-05-18T04:37:46;102255.48;;;6.07;68.96
79368;BME280;68834;53.152;17.962;2023-05-18T04:40:17;102258.79;;;6.18;68.78
79368;BME280;68834;53.152;17.962;2023-05-18T04:42:45;102257.71;;;6.26;68.77
79368;BME280;68834;53.152;17.962;2023-05-18T04:45:13;102261.33;;;6.34;68.77
79368;BME280;68834;53.152;17.962;2023-05-18T04:47:46;102258.67;;;6.41;68.72
79368;BME280;68834;53.152;17.962;2023-05-18T04:50:15;102260.23;;;6.51;68.53
79368;BME280;68834;53.152;17.962;2023-05-18T04:52:44;102262.83;;;6.62;68.36
79368;BME280;68834;53.152;17.962;2023-05-18T04:55:17;102269.97;;;6.75;68.07
79368;BME280;68834;53.152;17.962;2023-05-18T04:57:49;102271.67;;;6.83;67.93
79368;BME280;68834;53.152;17.962;2023-05-18T05:00:17;102267.96;;;6.91;67.89
79368;BME280;68834;53.152;17.962;2023-05-18T05:02:43;102274.54;;;7.01;67.78
79368;BME280;68834;53.152;17.962;2023-05-18T05:05:10;102276.24;;;7.11;67.67
79368;BME280;68834;53.152;17.962;2023-05-18T05:07:37;102281.41;;;7.19;67.47
79368;BME280;68834;53.152;17.962;2023-05-18T05:10:04;102280.66;;;7.28;67.38
79368;BME280;68834;53.152;17.962;2023-05-18T05:12:31;102282.34;;;7.38;67.25
79368;BME280;68834;53.152;17.962;2023-05-18T05:14:58;102277.75;;;7.45;67.04
79368;BME280;68834;53.152;17.962;2023-05-18T05:17:25;102279.41;;;7.54;66.89
79368;BME280;68834;53.152;17.962;2023-05-18T05:19:51;102278.32;;;7.64;66.86
79368;BME280;68834;53.152;17.962;2023-05-18T05:22:18;102277.56;;;7.74;66.60
79368;BME280;68834;53.152;17.962;2023-05-18T05:24:45;102280.80;;;7.83;66.87
79368;BME280;68834;53.152;17.962;2023-05-18T05:27:12;102284.41;;;7.95;66.31
79368;BME280;68834;53.152;17.962;2023-05-18T05:29:39;102278.42;;;8.05;65.85
79368;BME280;68834;53.152;17.962;2023-05-18T05:32:06;102279.42;;;8.19;65.91
79368;BME280;68834;53.152;17.962;2023-05-18T05:34:33;102273.65;;;8.35;65.58
79368;BME280;68834;53.152;17.962;2023-05-18T05:37:00;102278.86;;;8.50;65.28
79368;BME280;68834;53.152;17.962;2023-05-18T05:39:27;102281.23;;;8.64;64.93
79368;BME280;68834;53.152;17.962;2023-05-18T05:41:54;102281.70;;;8.78;64.67
79368;BME280;68834;53.152;17.962;2023-05-18T05:44:21;102283.34;;;8.87;64.48
79368;BME280;68834;53.152;17.962;2023-05-18T05:46:48;102281.66;;;8.99;63.95
79368;BME280;68834;53.152;17.962;2023-05-18T05:49:15;102288.73;;;9.12;63.73
79368;BME280;68834;53.152;17.962;2023-05-18T05:51:41;102287.91;;;9.24;63.50
79368;BME280;68834;53.152;17.962;2023-05-18T05:54:08;102291.81;;;9.37;63.35
79368;BME280;68834;53.152;17.962;2023-05-18T05:56:35;102294.67;;;9.49;62.54
79368;BME280;68834;53.152;17.962;2023-05-18T05:59:01;102292.80;;;9.62;62.49
79368;BME280;68834;53.152;17.962;2023-05-18T06:01:28;102293.73;;;9.75;61.70
79368;BME280;68834;53.152;17.962;2023-05-18T06:03:55;102295.50;;;9.85;60.94
79368;BME280;68834;53.152;17.962;2023-05-18T06:06:21;102300.78;;;9.95;60.53
79368;BME280;68834;53.152;17.962;2023-05-18T06:08:48;102298.35;;;10.09;60.47
79368;BME280;68834;53.152;17.962;2023-05-18T06:11:16;102302.23;;;10.24;59.34
79368;BME280;68834;53.152;17.962;2023-05-18T06:13:44;102301.06;;;10.37;59.30
79368;BME280;68834;53.152;17.962;2023-05-18T06:16:12;102299.48;;;10.54;58.87
79368;BME280;68834;53.152;17.962;2023-05-18T06:18:38;102298.27;;;10.69;58.06
79368;BME280;68834;53.152;17.962;2023-05-18T06:21:05;102293.89;;;10.81;57.05
79368;BME280;68834;53.152;17.962;2023-05-18T06:23:32;102293.35;;;10.96;57.36
79368;BME280;68834;53.152;17.962;2023-05-18T06:26:01;102295.92;;;11.13;56.92
79368;BME280;68834;53.152;17.962;2023-05-18T06:28:31;102298.87;;;11.30;56.26
79368;BME280;68834;53.152;17.962;2023-05-18T06:31:05;102295.83;;;11.45;55.82
79368;BME280;68834;53.152;17.962;2023-05-18T06:33:44;102299.95;;;11.65;55.61
79368;BME280;68834;53.152;17.962;2023-05-18T06:36:10;102302.34;;;11.81;55.23
79368;BME280;68834;53.152;17.962;2023-05-18T06:38:37;102304.39;;;11.98;54.88
79368;BME280;68834;53.152;17.962;2023-05-18T06:41:04;102300.08;;;12.12;54.09
79368;BME280;68834;53.152;17.962;2023-05-18T06:43:30;102298.22;;;12.28;53.63
79368;BME280;68834;53.152;17.962;2023-05-18T06:46:04;102297.57;;;12.45;52.89
79368;BME280;68834;53.152;17.962;2023-05-18T06:48:35;102305.16;;;12.62;52.65
79368;BME280;68834;53.152;17.962;2023-05-18T06:51:02;102304.49;;;12.77;51.47
79368;BME280;68834;53.152;17.962;2023-05-18T06:53:30;102301.23;;;12.90;51.49
79368;BME280;68834;53.152;17.962;2023-05-18T06:55:57;102303.19;;;13.05;51.20
79368;BME280;68834;53.152;17.962;2023-05-18T06:58:23;102305.85;;;13.19;50.05
79368;BME280;68834;53.152;17.962;2023-05-18T07:00:51;102310.10;;;13.33;50.27
79368;BME280;68834;53.152;17.962;2023-05-18T07:03:19;102309.25;;;13.47;49.86
79368;BME280;68834;53.152;17.962;2023-05-18T07:05:46;102308.73;;;13.61;49.30
79368;BME280;68834;53.152;17.962;2023-05-18T07:08:12;102309.26;;;13.74;48.88
79368;BME280;68834;53.152;17.962;2023-05-18T07:10:39;102310.30;;;13.88;48.24
79368;BME280;68834;53.152;17.962;2023-05-18T07:13:05;102306.11;;;13.99;47.33
79368;BME280;68834;53.152;17.962;2023-05-18T07:15:32;102303.33;;;14.09;46.64
79368;BME280;68834;53.152;17.962;2023-05-18T07:17:58;102306.25;;;14.25;47.56
79368;BME280;68834;53.152;17.962;2023-05-18T07:20:25;102303.37;;;14.41;45.82
79368;BME280;68834;53.152;17.962;2023-05-18T07:22:52;102308.34;;;14.51;45.13
79368;BME280;68834;53.152;17.962;2023-05-18T07:25:21;102310.96;;;14.63;45.38
79368;BME280;68834;53.152;17.962;2023-05-18T07:27:48;102308.23;;;14.78;44.93
79368;BME280;68834;53.152;17.962;2023-05-18T07:30:18;102312.62;;;14.99;45.03
79368;BME280;68834;53.152;17.962;2023-05-18T07:32:45;102314.33;;;15.21;44.52
79368;BME280;68834;53.152;17.962;2023-05-18T07:35:12;102312.88;;;15.41;42.71
79368;BME280;68834;53.152;17.962;2023-05-18T07:37:38;102311.02;;;15.55;42.92
79368;BME280;68834;53.152;17.962;2023-05-18T07:40:06;102310.95;;;15.76;43.18
79368;BME280;68834;53.152;17.962;2023-05-18T07:42:37;102315.03;;;15.99;42.94
79368;BME280;68834;53.152;17.962;2023-05-18T07:45:05;102310.44;;;16.23;42.61
79368;BME280;68834;53.152;17.962;2023-05-18T07:47:32;102316.73;;;16.48;40.95
79368;BME280;68834;53.152;17.962;2023-05-18T07:49:59;102312.70;;;16.60;39.51
79368;BME280;68834;53.152;17.962;2023-05-18T07:52:26;102315.29;;;16.56;39.13
79368;BME280;68834;53.152;17.962;2023-05-18T07:54:54;102314.13;;;16.60;39.79
79368;BME280;68834;53.152;17.962;2023-05-18T07:57:23;102316.58;;;16.83;39.53
79368;BME280;68834;53.152;17.962;2023-05-18T07:59:50;102316.89;;;17.05;39.48
79368;BME280;68834;53.152;17.962;2023-05-18T08:02:16;102317.72;;;17.33;38.98
79368;BME280;68834;53.152;17.962;2023-05-18T08:04:46;102318.98;;;17.62;38.72
79368;BME280;68834;53.152;17.962;2023-05-18T08:07:13;102320.98;;;17.91;38.22
79368;BME280;68834;53.152;17.962;2023-05-18T08:09:40;102320.51;;;18.18;37.76
79368;BME280;68834;53.152;17.962;2023-05-18T08:12:07;102313.99;;;18.39;37.36
79368;BME280;68834;53.152;17.962;2023-05-18T08:14:34;102318.31;;;18.53;35.93
79368;BME280;68834;53.152;17.962;2023-05-18T08:17:02;102311.80;;;18.57;35.58
79368;BME280;68834;53.152;17.962;2023-05-18T08:19:29;102314.66;;;18.62;35.17
79368;BME280;68834;53.152;17.962;2023-05-18T08:21:55;102313.52;;;18.64;34.63
79368;BME280;68834;53.152;17.962;2023-05-18T08:24:22;102315.50;;;18.68;35.02
79368;BME280;68834;53.152;17.962;2023-05-18T08:26:48;102315.02;;;18.89;35.24
79368;BME280;68834;53.152;17.962;2023-05-18T08:29:15;102314.45;;;19.10;34.26
79368;BME280;68834;53.152;17.962;2023-05-18T08:31:41;102317.41;;;19.16;34.11
79368;BME280;68834;53.152;17.962;2023-05-18T08:34:08;102314.77;;;19.26;34.16
79368;BME280;68834;53.152;17.962;2023-05-18T08:36:35;102314.33;;;19.43;33.41
79368;BME280;68834;53.152;17.962;2023-05-18T08:39:03;102317.06;;;19.54;34.02
79368;BME280;68834;53.152;17.962;2023-05-18T08:41:54;102317.04;;;19.79;34.39
79368;BME280;68834;53.152;17.962;2023-05-18T08:44:38;102316.80;;;20.08;33.32
79368;BME280;68834;53.152;17.962;2023-05-18T08:47:08;102317.52;;;20.30;33.25
79368;BME280;68834;53.152;17.962;2023-05-18T08:49:37;102315.49;;;20.54;33.12
79368;BME280;68834;53.152;17.962;2023-05-18T08:52:07;102315.55;;;20.75;32.97
79368;BME280;68834;53.152;17.962;2023-05-18T08:54:35;102317.22;;;20.97;32.86
79368;BME280;68834;53.152;17.962;2023-05-18T08:57:07;102312.92;;;21.10;31.86
79368;BME280;68834;53.152;17.962;2023-05-18T08:59:41;102317.71;;;20.86;31.60
79368;BME280;68834;53.152;17.962;2023-05-18T09:02:08;102317.70;;;20.69;31.89
79368;BME280;68834;53.152;17.962;2023-05-18T09:04:35;102314.57;;;20.93;32.17
79368;BME280;68834;53.152;17.962;2023-05-18T09:07:03;102308.85;;;21.26;31.98
79368;BME280;68834;53.152;17.962;2023-05-18T09:09:31;102307.30;;;21.41;31.40
79368;BME280;68834;53.152;17.962;2023-05-18T09:11:58;102307.52;;;21.36;30.82
79368;BME280;68834;53.152;17.962;2023-05-18T09:14:24;102303.52;;;21.18;30.26
79368;BME280;68834;53.152;17.962;2023-05-18T09:16:52;102304.96;;;20.97;30.71
79368;BME280;68834;53.152;17.962;2023-05-18T09:19:19;102304.30;;;20.71;30.16
79368;BME280;68834;53.152;17.962;2023-05-18T09:21:46;102307.36;;;20.36;31.21
79368;BME280;68834;53.152;17.962;2023-05-18T09:24:12;102306.10;;;20.54;31.06
79368;BME280;68834;53.152;17.962;2023-05-18T09:26:40;102305.02;;;20.83;31.10
79368;BME280;68834;53.152;17.962;2023-05-18T09:29:17;102298.77;;;21.13;30.57
79368;BME280;68834;53.152;17.962;2023-05-18T09:31:45;102300.90;;;21.13;29.81
79368;BME280;68834;53.152;17.962;2023-05-18T09:34:13;102300.09;;;21.11;30.12
79368;BME280;68834;53.152;17.962;2023-05-18T09:36:40;102299.39;;;21.39;30.38
79368;BME280;68834;53.152;17.962;2023-05-18T09:39:11;102294.60;;;21.47;28.85
79368;BME280;68834;53.152;17.962;2023-05-18T09:41:39;102294.21;;;21.15;28.76
79368;BME280;68834;53.152;17.962;2023-05-18T09:44:07;102292.89;;;21.05;30.16
79368;BME280;68834;53.152;17.962;2023-05-18T09:46:38;102292.45;;;21.43;30.15
79368;BME280;68834;53.152;17.962;2023-05-18T09:49:05;102290.00;;;21.80;29.11
79368;BME280;68834;53.152;17.962;2023-05-18T09:51:36;102287.10;;;21.85;29.03
79368;BME280;68834;53.152;17.962;2023-05-18T09:54:06;102286.14;;;21.90;28.96
79368;BME280;68834;53.152;17.962;2023-05-18T09:56:35;102286.26;;;22.06;29.13
79368;BME280;68834;53.152;17.962;2023-05-18T09:59:10;102281.78;;;22.33;28.85
79368;BME280;68834;53.152;17.962;2023-05-18T10:04:21;102281.55;;;22.69;28.23
79368;BME280;68834;53.152;17.962;2023-05-18T10:06:48;102277.16;;;22.74;27.78
79368;BME280;68834;53.152;17.962;2023-05-18T10:09:16;102271.19;;;22.80;27.56
79368;BME280;68834;53.152;17.962;2023-05-18T10:11:43;102271.48;;;22.88;27.67
79368;BME280;68834;53.152;17.962;2023-05-18T10:14:10;102270.41;;;23.19;27.97
79368;BME280;68834;53.152;17.962;2023-05-18T10:16:37;102273.69;;;23.40;26.98
79368;BME280;68834;53.152;17.962;2023-05-18T10:19:05;102273.64;;;23.57;26.69
79368;BME280;68834;53.152;17.962;2023-05-18T10:21:33;102268.98;;;23.84;26.45
79368;BME280;68834;53.152;17.962;2023-05-18T10:24:02;102263.70;;;24.14;26.29
79368;BME280;68834;53.152;17.962;2023-05-18T10:26:31;102259.13;;;24.22;25.36
79368;BME280;68834;53.152;17.962;2023-05-18T10:29:00;102260.16;;;24.04;24.93
79368;BME280;68834;53.152;17.962;2023-05-18T10:31:28;102261.69;;;23.73;24.42
79368;BME280;68834;53.152;17.962;2023-05-18T10:33:57;102262.91;;;23.52;25.80
79368;BME280;68834;53.152;17.962;2023-05-18T10:36:25;102265.84;;;23.66;25.97
79368;BME280;68834;53.152;17.962;2023-05-18T10:38:58;102264.02;;;23.99;25.41
79368;BME280;68834;53.152;17.962;2023-05-18T10:41:26;102263.89;;;24.32;25.82
79368;BME280;68834;53.152;17.962;2023-05-18T10:43:53;102257.92;;;24.67;24.87
79368;BME280;68834;53.152;17.962;2023-05-18T10:46:21;102256.79;;;24.79;25.00
79368;BME280;68834;53.152;17.962;2023-05-18T10:48:51;102263.17;;;24.60;24.90
79368;BME280;68834;53.152;17.962;2023-05-18T10:51:20;102262.20;;;24.67;25.11
79368;BME280;68834;53.152;17.962;2023-05-18T10:53:47;102262.29;;;24.95;24.70
79368;BME280;68834;53.152;17.962;2023-05-18T10:56:16;102255.42;;;24.90;24.20
79368;BME280;68834;53.152;17.962;2023-05-18T10:58:43;102255.67;;;24.92;24.71
79368;BME280;68834;53.152;17.962;2023-05-18T11:01:12;102259.86;;;25.11;24.16
79368;BME280;68834;53.152;17.962;2023-05-18T11:03:39;102260.86;;;25.18;23.38
79368;BME280;68834;53.152;17.962;2023-05-18T11:06:09;102256.95;;;24.88;23.12
79368;BME280;68834;53.152;17.962;2023-05-18T11:08:46;102261.80;;;24.76;23.71
79368;BME280;68834;53.152;17.962;2023-05-18T11:11:13;102262.28;;;24.86;23.36
79368;BME280;68834;53.152;17.962;2023-05-18T11:13:47;102253.40;;;24.91;23.60
79368;BME280;68834;53.152;17.962;2023-05-18T11:16:15;102255.30;;;25.15;24.07
79368;BME280;68834;53.152;17.962;2023-05-18T11:18:45;102256.52;;;25.47;23.69
79368;BME280;68834;53.152;17.962;2023-05-18T11:21:51;102258.98;;;25.93;23.79
79368;BME280;68834;53.152;17.962;2023-05-18T11:26:54;102243.54;;;28.98;21.80
79368;BME280;68834;53.152;17.962;2023-05-18T11:29:29;102238.01;;;30.33;19.58
79368;BME280;68834;53.152;17.962;2023-05-18T11:31:56;102244.70;;;31.34;18.57
79368;BME280;68834;53.152;17.962;2023-05-18T11:34:45;102238.83;;;32.12;17.02
79368;BME280;68834;53.152;17.962;2023-05-18T11:37:14;102229.15;;;33.03;16.64
79368;BME280;68834;53.152;17.962;2023-05-18T11:39:52;102235.55;;;33.92;15.83
79368;BME280;68834;53.152;17.962;2023-05-18T11:42:19;102235.36;;;34.79;15.34
79368;BME280;68834;53.152;17.962;2023-05-18T11:44:51;102234.91;;;35.73;14.91
79368;BME280;68834;53.152;17.962;2023-05-18T11:47:19;102234.41;;;36.45;14.22
79368;BME280;68834;53.152;17.962;2023-05-18T11:49:47;102228.38;;;36.99;14.51
79368;BME280;68834;53.152;17.962;2023-05-18T11:52:20;102237.23;;;36.31;14.19
79368;BME280;68834;53.152;17.962;2023-05-18T11:54:51;102239.37;;;35.62;14.02
79368;BME280;68834;53.152;17.962;2023-05-18T11:57:22;102235.27;;;34.90;14.63
79368;BME280;68834;53.152;17.962;2023-05-18T11:59:56;102231.67;;;35.53;13.92
79368;BME280;68834;53.152;17.962;2023-05-18T12:02:25;102229.45;;;35.35;13.60
79368;BME280;68834;53.152;17.962;2023-05-18T12:05:00;102234.23;;;35.19;13.15
79368;BME280;68834;53.152;17.962;2023-05-18T12:07:29;102233.71;;;35.44;14.00
79368;BME280;68834;53.152;17.962;2023-05-18T12:10:02;102226.34;;;35.93;13.85
79368;BME280;68834;53.152;17.962;2023-05-18T12:12:29;102234.23;;;35.41;13.53
79368;BME280;68834;53.152;17.962;2023-05-18T12:14:58;102230.60;;;34.69;14.25
79368;BME280;68834;53.152;17.962;2023-05-18T12:17:47;102230.85;;;35.28;14.17
79368;BME280;68834;53.152;17.962;2023-05-18T12:22:47;102229.02;;;36.37;13.02
79368;BME280;68834;53.152;17.962;2023-05-18T12:25:19;102222.31;;;36.70;12.91
79368;BME280;68834;53.152;17.962;2023-05-18T12:27:48;102221.80;;;36.14;12.90
79368;BME280;68834;53.152;17.962;2023-05-18T12:30:23;102218.70;;;36.33;12.81
79368;BME280;68834;53.152;17.962;2023-05-18T12:35:24;102218.30;;;35.65;12.05
79368;BME280;68834;53.152;17.962;2023-05-18T12:37:52;102217.88;;;35.48;12.61
79368;BME280;68834;53.152;17.962;2023-05-18T12:40:23;102221.89;;;35.29;13.22
79368;BME280;68834;53.152;17.962;2023-05-18T12:42:51;102224.31;;;35.43;13.06
79368;BME280;68834;53.152;17.962;2023-05-18T12:45:24;102221.48;;;35.81;13.20
79368;BME280;68834;53.152;17.962;2023-05-18T12:47:51;102217.23;;;35.63;12.14
79368;BME280;68834;53.152;17.962;2023-05-18T12:50:21;102216.89;;;35.01;12.41
79368;BME280;68834;53.152;17.962;2023-05-18T12:52:48;102213.17;;;34.89;12.83
79368;BME280;68834;53.152;17.962;2023-05-18T12:55:20;102216.17;;;35.19;12.78
79368;BME280;68834;53.152;17.962;2023-05-18T12:58:10;102215.73;;;35.49;12.47
79368;BME280;68834;53.152;17.962;2023-05-18T13:00:44;102216.59;;;35.74;12.00
79368;BME280;68834;53.152;17.962;2023-05-18T13:03:16;102218.80;;;35.73;11.99
79368;BME280;68834;53.152;17.962;2023-05-18T13:05:45;102217.77;;;35.70;12.12
79368;BME280;68834;53.152;17.962;2023-05-18T13:08:26;102219.69;;;35.71;11.96
79368;BME280;68834;53.152;17.962;2023-05-18T13:10:53;102213.08;;;35.41;11.71
79368;BME280;68834;53.152;17.962;2023-05-18T13:13:19;102214.55;;;34.85;12.31
79368;BME280;68834;53.152;17.962;2023-05-18T13:15:46;102207.89;;;34.88;12.87
79368;BME280;68834;53.152;17.962;2023-05-18T13:18:13;102206.76;;;34.74;13.03
79368;BME280;68834;53.152;17.962;2023-05-18T13:20:44;102212.14;;;34.05;13.40